sensor_id;sensor_type;location;lat;lon;timestamp;pressure;altitude;pressure_sealevel;temperature;humidity
52469;BME280;38381;53.688;10.776;2022-12-29T00:02:52;99778.28;;;6.73;100.00
52469;BME280;38381;53.688;10.776;2022-12-29T00:07:52;99780.84;;;6.73;100.00
52469;BME280;38381;53.688;10.776;2022-12-29T00:12:53;99775.69;;;6.74;100.00
52469;BME280;38381;53.688;10.776;2022-12-29T00:18:12;99762.03;;;6.91;100.00
52469;BME280;38381;53.688;10.776;2022-12-29T00:23:12;99761.97;;;6.75;100.00
52469;BME280;38381;53.688;10.776;2022-12-29T00:28:31;99750.03;;;6.99;100.00
52469;BME280;38381;53.688;10.776;2022-12-29T00:33:58;99761.19;;;6.87;100.00
52469;BME280;38381;53.688;10.776;2022-12-29T00:39:18;99755.16;;;6.93;100.00
52469;BME280;38381;53.688;10.776;2022-12-29T00:44:37;99760.34;;;6.96;100.00
52469;BME280;38381;53.688;10.776;2022-12-29T00:49:37;99762.13;;;7.09;100.00
52469;BME280;38381;53.688;10.776;2022-12-29T00:54:39;99756.97;;;7.06;100.00
52469;BME280;38381;53.688;10.776;2022-12-29T00:59:41;99733.84;;;7.29;100.00
52469;BME280;38381;53.688;10.776;2022-12-29T01:04:41;99732.97;;;7.18;100.00
52469;BME280;38381;53.688;10.776;2022-12-29T01:09:42;99735.56;;;7.24;100.00
52469;BME280;38381;53.688;10.776;2022-12-29T01:15:01;99728.69;;;7.35;100.00
52469;BME280;38381;53.688;10.776;2022-12-29T01:20:02;99733.84;;;7.26;100.00
52469;BME280;38381;53.688;10.776;2022-12-29T01:25:04;99723.53;;;7.29;100.00
52469;BME280;38381;53.688;10.776;2022-12-29T01:30:05;99720.09;;;7.27;100.00
52469;BME280;38381;53.688;10.776;2022-12-29T01:35:05;99708.09;;;7.38;100.00
52469;BME280;38381;53.688;10.776;2022-12-29T01:40:06;99696.88;;;7.24;100.00
52469;BME280;38381;53.688;10.776;2022-12-29T01:45:15;99704.63;;;7.33;100.00
52469;BME280;38381;53.688;10.776;2022-12-29T01:50:29;99696.91;;;7.41;100.00
52469;BME280;38381;53.688;10.776;2022-12-29T01:55:34;99697.75;;;7.34;100.00
52469;BME280;38381;53.688;10.776;2022-12-29T02:00:37;99687.44;;;7.32;100.00
52469;BME280;38381;53.688;10.776;2022-12-29T02:05:42;99678.00;;;7.34;100.00
52469;BME280;38381;53.688;10.776;2022-12-29T02:10:45;99678.84;;;7.36;100.00
52469;BME280;38381;53.688;10.776;2022-12-29T02:16:05;99672.84;;;7.47;100.00
52469;BME280;38381;53.688;10.776;2022-12-29T02:26:44;99670.25;;;7.37;100.00
52469;BME280;38381;53.688;10.776;2022-12-29T02:37:11;99660.81;;;7.42;100.00
52469;BME280;38381;53.688;10.776;2022-12-29T02:47:37;99636.75;;;7.47;100.00
52469;BME280;38381;53.688;10.776;2022-12-29T02:52:46;99638.44;;;7.49;100.00
52469;BME280;38381;53.688;10.776;2022-12-29T02:58:06;99649.63;;;7.47;100.00
52469;BME280;38381;53.688;10.776;2022-12-29T03:13:51;99620.41;;;7.69;100.00
52469;BME280;38381;53.688;10.776;2022-12-29T03:19:19;99608.34;;;7.74;100.00
52469;BME280;38381;53.688;10.776;2022-12-29T03:24:27;99592.88;;;7.56;100.00
52469;BME280;38381;53.688;10.776;2022-12-29T03:29:34;99592.88;;;7.62;100.00
52469;BME280;38381;53.688;10.776;2022-12-29T03:34:36;99592.88;;;7.54;100.00
52469;BME280;38381;53.688;10.776;2022-12-29T03:39:37;99591.16;;;7.56;100.00
52469;BME280;38381;53.688;10.776;2022-12-29T03:44:41;99572.25;;;7.59;100.00
52469;BME280;38381;53.688;10.776;2022-12-29T03:49:42;99564.47;;;7.68;100.00
52469;BME280;38381;53.688;10.776;2022-12-29T03:54:43;99555.00;;;7.75;100.00
52469;BME280;38381;53.688;10.776;2022-12-29T03:59:43;99567.91;;;7.81;100.00
52469;BME280;38381;53.688;10.776;2022-12-29T04:04:44;99548.97;;;7.73;100.00
52469;BME280;38381;53.688;10.776;2022-12-29T04:09:44;99546.38;;;7.86;100.00
52469;BME280;38381;53.688;10.776;2022-12-29T04:14:44;99542.13;;;7.79;100.00
52469;BME280;38381;53.688;10.776;2022-12-29T04:19:45;99546.44;;;7.71;100.00
52469;BME280;38381;53.688;10.776;2022-12-29T04:24:45;99534.38;;;7.70;100.00
52469;BME280;38381;53.688;10.776;2022-12-29T04:29:45;99536.06;;;7.80;100.00
52469;BME280;38381;53.688;10.776;2022-12-29T04:34:46;99535.22;;;7.74;100.00
52469;BME280;38381;53.688;10.776;2022-12-29T04:39:46;99539.50;;;7.87;100.00
52469;BME280;38381;53.688;10.776;2022-12-29T04:44:47;99533.47;;;7.86;100.00
52469;BME280;38381;53.688;10.776;2022-12-29T04:49:48;99538.59;;;8.06;100.00
52469;BME280;38381;53.688;10.776;2022-12-29T04:54:49;99544.66;;;7.90;100.00
52469;BME280;38381;53.688;10.776;2022-12-29T04:59:49;99527.44;;;7.97;100.00
52469;BME280;38381;53.688;10.776;2022-12-29T05:04:50;99522.22;;;8.11;100.00
52469;BME280;38381;53.688;10.776;2022-12-29T05:09:50;99518.81;;;7.99;100.00
52469;BME280;38381;53.688;10.776;2022-12-29T05:14:50;99506.78;;;7.98;100.00
52469;BME280;38381;53.688;10.776;2022-12-29T05:19:51;99512.81;;;7.91;100.00
52469;BME280;38381;53.688;10.776;2022-12-29T05:24:51;99501.59;;;7.97;100.00
52469;BME280;38381;53.688;10.776;2022-12-29T05:29:51;99497.31;;;8.00;100.00
52469;BME280;38381;53.688;10.776;2022-12-29T05:34:52;99493.00;;;8.01;100.00
52469;BME280;38381;53.688;10.776;2022-12-29T05:39:52;99494.69;;;8.03;100.00
52469;BME280;38381;53.688;10.776;2022-12-29T05:44:52;99486.09;;;8.01;100.00
52469;BME280;38381;53.688;10.776;2022-12-29T05:49:53;99492.16;;;7.94;100.00
52469;BME280;38381;53.688;10.776;2022-12-29T05:54:54;99488.69;;;8.06;100.00
52469;BME280;38381;53.688;10.776;2022-12-29T05:59:54;99465.44;;;8.03;100.00
52469;BME280;38381;53.688;10.776;2022-12-29T06:04:55;99481.72;;;8.16;100.00
52469;BME280;38381;53.688;10.776;2022-12-29T06:09:56;99466.28;;;8.03;100.00
52469;BME280;38381;53.688;10.776;2022-12-29T06:14:56;99483.50;;;8.09;100.00
52469;BME280;38381;53.688;10.776;2022-12-29T06:19:57;99485.13;;;8.24;100.00
52469;BME280;38381;53.688;10.776;2022-12-29T06:24:57;99468.88;;;8.06;100.00
52469;BME280;38381;53.688;10.776;2022-12-29T06:29:58;99477.38;;;8.35;100.00
52469;BME280;38381;53.688;10.776;2022-12-29T06:34:58;99491.97;;;8.37;100.00
52469;BME280;38381;53.688;10.776;2022-12-29T06:39:59;99486.91;;;8.19;100.00
52469;BME280;38381;53.688;10.776;2022-12-29T06:44:59;99491.25;;;8.12;100.00
52469;BME280;38381;53.688;10.776;2022-12-29T06:50:01;99501.50;;;8.20;100.00
52469;BME280;38381;53.688;10.776;2022-12-29T06:55:02;99498.00;;;8.39;100.00
52469;BME280;38381;53.688;10.776;2022-12-29T07:00:03;99491.22;;;8.14;100.00
52469;BME280;38381;53.688;10.776;2022-12-29T07:05:05;99493.72;;;8.34;100.00
52469;BME280;38381;53.688;10.776;2022-12-29T07:10:05;99489.31;;;8.53;100.00
52469;BME280;38381;53.688;10.776;2022-12-29T07:15:06;99488.50;;;8.48;100.00
52469;BME280;38381;53.688;10.776;2022-12-29T07:20:08;99491.09;;;8.48;100.00
52469;BME280;38381;53.688;10.776;2022-12-29T07:25:09;99479.06;;;8.42;100.00
52469;BME280;38381;53.688;10.776;2022-12-29T07:30:09;99493.56;;;8.66;100.00
52469;BME280;38381;53.688;10.776;2022-12-29T07:35:10;99496.28;;;8.44;100.00
52469;BME280;38381;53.688;10.776;2022-12-29T07:40:11;99495.44;;;8.32;100.00
52469;BME280;38381;53.688;10.776;2022-12-29T07:45:11;99498.97;;;8.15;100.00
52469;BME280;38381;53.688;10.776;2022-12-29T07:50:12;99498.13;;;8.16;100.00
52469;BME280;38381;53.688;10.776;2022-12-29T07:55:12;99513.59;;;8.12;100.00
52469;BME280;38381;53.688;10.776;2022-12-29T08:00:13;99499.84;;;8.11;100.00
52469;BME280;38381;53.688;10.776;2022-12-29T08:05:14;99516.22;;;8.02;100.00
52469;BME280;38381;53.688;10.776;2022-12-29T08:10:15;99506.72;;;8.09;100.00
52469;BME280;38381;53.688;10.776;2022-12-29T08:15:16;99519.63;;;8.17;100.00
52469;BME280;38381;53.688;10.776;2022-12-29T08:20:16;99507.47;;;8.39;100.00
52469;BME280;38381;53.688;10.776;2022-12-29T08:25:17;99536.66;;;8.62;100.00
52469;BME280;38381;53.688;10.776;2022-12-29T08:30:17;99503.03;;;8.70;100.00
52469;BME280;38381;53.688;10.776;2022-12-29T08:35:18;99504.75;;;8.68;100.00
52469;BME280;38381;53.688;10.776;2022-12-29T08:40:18;99536.56;;;8.84;100.00
52469;BME280;38381;53.688;10.776;2022-12-29T08:45:18;99538.28;;;8.77;100.00
52469;BME280;38381;53.688;10.776;2022-12-29T08:50:19;99542.63;;;8.75;100.00
52469;BME280;38381;53.688;10.776;2022-12-29T08:55:19;99534.97;;;8.57;100.00
52469;BME280;38381;53.688;10.776;2022-12-29T09:00:20;99547.81;;;8.72;100.00
52469;BME280;38381;53.688;10.776;2022-12-29T09:05:20;99541.78;;;8.69;100.00
52469;BME280;38381;53.688;10.776;2022-12-29T09:10:21;99552.94;;;8.80;100.00
52469;BME280;38381;53.688;10.776;2022-12-29T09:15:21;99549.47;;;8.84;100.00
52469;BME280;38381;53.688;10.776;2022-12-29T09:20:22;99549.56;;;8.69;100.00
52469;BME280;38381;53.688;10.776;2022-12-29T09:25:22;99565.72;;;9.04;100.00
52469;BME280;38381;53.688;10.776;2022-12-29T09:30:24;99557.97;;;9.03;100.00
52469;BME280;38381;53.688;10.776;2022-12-29T09:35:24;99564.84;;;9.05;100.00
52469;BME280;38381;53.688;10.776;2022-12-29T09:40:30;99552.72;;;9.14;100.00
52469;BME280;38381;53.688;10.776;2022-12-29T09:45:58;99553.31;;;9.50;98.51
52469;BME280;38381;53.688;10.776;2022-12-29T09:51:03;99565.50;;;9.34;96.71
52469;BME280;38381;53.688;10.776;2022-12-29T09:56:13;99557.66;;;9.44;96.03
52469;BME280;38381;53.688;10.776;2022-12-29T10:01:27;99559.44;;;9.36;95.05
52469;BME280;38381;53.688;10.776;2022-12-29T10:27:34;99594.63;;;9.60;90.58
52469;BME280;38381;53.688;10.776;2022-12-29T10:32:36;99593.88;;;9.48;90.37
52469;BME280;38381;53.688;10.776;2022-12-29T10:37:40;99604.13;;;9.55;89.08
52469;BME280;38381;53.688;10.776;2022-12-29T10:42:46;99600.59;;;9.67;88.75
52469;BME280;38381;53.688;10.776;2022-12-29T10:48:01;99594.69;;;9.54;88.11
52469;BME280;38381;53.688;10.776;2022-12-29T10:53:04;99590.22;;;9.70;86.71
52469;BME280;38381;53.688;10.776;2022-12-29T10:58:07;99594.66;;;9.56;87.05
52469;BME280;38381;53.688;10.776;2022-12-29T11:03:49;99586.00;;;9.60;87.02
52469;BME280;38381;53.688;10.776;2022-12-29T11:09:27;99583.53;;;9.48;86.41
52469;BME280;38381;53.688;10.776;2022-12-29T11:14:30;99587.72;;;9.61;86.11
52469;BME280;38381;53.688;10.776;2022-12-29T11:19:32;99568.75;;;9.57;85.67
52469;BME280;38381;53.688;10.776;2022-12-29T11:24:43;99572.38;;;9.38;85.68
52469;BME280;38381;53.688;10.776;2022-12-29T11:29:45;99575.00;;;9.30;86.01
52469;BME280;38381;53.688;10.776;2022-12-29T11:34:45;99573.00;;;9.66;84.43
52469;BME280;38381;53.688;10.776;2022-12-29T11:39:59;99573.84;;;9.68;84.42
52469;BME280;38381;53.688;10.776;2022-12-29T11:45:19;99573.75;;;9.76;84.61
52469;BME280;38381;53.688;10.776;2022-12-29T11:50:26;99574.59;;;9.81;83.17
52469;BME280;38381;53.688;10.776;2022-12-29T11:55:28;99578.13;;;9.72;83.85
52469;BME280;38381;53.688;10.776;2022-12-29T12:00:32;99585.00;;;9.76;81.75
52469;BME280;38381;53.688;10.776;2022-12-29T12:05:39;99581.41;;;9.90;82.05
52469;BME280;38381;53.688;10.776;2022-12-29T12:10:49;99583.22;;;9.80;82.47
52469;BME280;38381;53.688;10.776;2022-12-29T12:15:59;99573.03;;;9.63;82.63
52469;BME280;38381;53.688;10.776;2022-12-29T12:21:13;99568.75;;;9.59;82.42
52469;BME280;38381;53.688;10.776;2022-12-29T12:26:21;99581.63;;;9.65;82.10
52469;BME280;38381;53.688;10.776;2022-12-29T12:31:55;99591.03;;;9.74;81.05
52469;BME280;38381;53.688;10.776;2022-12-29T12:37:03;99587.75;;;9.56;81.72
52469;BME280;38381;53.688;10.776;2022-12-29T12:42:22;99587.91;;;9.39;83.11
52469;BME280;38381;53.688;10.776;2022-12-29T12:48:19;99587.03;;;9.39;82.48
52469;BME280;38381;53.688;10.776;2022-12-29T12:53:07;99589.50;;;9.53;82.38
52469;BME280;38381;53.688;10.776;2022-12-29T12:58:49;99590.41;;;9.52;82.91
52469;BME280;38381;53.688;10.776;2022-12-29T13:15:03;99603.34;;;9.50;83.24
52469;BME280;38381;53.688;10.776;2022-12-29T13:20:36;99592.88;;;9.64;82.24
52469;BME280;38381;53.688;10.776;2022-12-29T13:26:17;99599.06;;;9.44;82.29
52469;BME280;38381;53.688;10.776;2022-12-29T13:36:47;99612.66;;;9.71;82.29
52469;BME280;38381;53.688;10.776;2022-12-29T13:41:56;99607.63;;;9.54;82.26
52469;BME280;38381;53.688;10.776;2022-12-29T13:47:01;99617.13;;;9.49;80.89
52469;BME280;38381;53.688;10.776;2022-12-29T13:52:32;99623.94;;;9.61;78.53
52469;BME280;38381;53.688;10.776;2022-12-29T13:58:08;99636.94;;;9.55;78.28
52469;BME280;38381;53.688;10.776;2022-12-29T14:03:41;99629.97;;;9.66;80.16
52469;BME280;38381;53.688;10.776;2022-12-29T14:08:43;99643.66;;;9.77;79.16
52469;BME280;38381;53.688;10.776;2022-12-29T14:13:46;99658.50;;;9.60;79.20
52469;BME280;38381;53.688;10.776;2022-12-29T14:18:47;99665.47;;;9.47;78.97
52469;BME280;38381;53.688;10.776;2022-12-29T14:23:49;99668.75;;;9.67;78.84
52469;BME280;38381;53.688;10.776;2022-12-29T14:28:51;99676.59;;;9.60;79.86
52469;BME280;38381;53.688;10.776;2022-12-29T14:39:31;99736.16;;;9.55;82.73
52469;BME280;38381;53.688;10.776;2022-12-29T14:44:33;99733.69;;;9.34;86.55
52469;BME280;38381;53.688;10.776;2022-12-29T14:49:41;99806.28;;;8.91;88.78
52469;BME280;38381;53.688;10.776;2022-12-29T14:54:49;99790.81;;;8.61;86.42
52469;BME280;38381;53.688;10.776;2022-12-29T14:59:54;99799.38;;;7.96;87.75
52469;BME280;38381;53.688;10.776;2022-12-29T15:04:59;99801.94;;;7.83;88.58
52469;BME280;38381;53.688;10.776;2022-12-29T15:10:13;99807.88;;;7.58;90.22
52469;BME280;38381;53.688;10.776;2022-12-29T15:15:24;99806.19;;;7.63;90.67
52469;BME280;38381;53.688;10.776;2022-12-29T15:20:28;99818.16;;;7.50;91.44
52469;BME280;38381;53.688;10.776;2022-12-29T15:25:30;99821.63;;;7.54;91.80
52469;BME280;38381;53.688;10.776;2022-12-29T15:30:32;99825.94;;;7.58;91.97
52469;BME280;38381;53.688;10.776;2022-12-29T15:35:36;99837.13;;;7.51;91.13
52469;BME280;38381;53.688;10.776;2022-12-29T15:40:37;99835.41;;;7.53;91.32
52469;BME280;38381;53.688;10.776;2022-12-29T15:45:38;99837.13;;;7.57;91.65
52469;BME280;38381;53.688;10.776;2022-12-29T15:50:40;99848.28;;;7.54;91.35
52469;BME280;38381;53.688;10.776;2022-12-29T15:55:43;99854.25;;;7.41;91.72
52469;BME280;38381;53.688;10.776;2022-12-29T16:00:50;99868.06;;;7.54;91.37
52469;BME280;38381;53.688;10.776;2022-12-29T16:05:56;99877.50;;;7.47;92.09
52469;BME280;38381;53.688;10.776;2022-12-29T16:10:57;99888.63;;;7.40;92.38
52469;BME280;38381;53.688;10.776;2022-12-29T16:16:06;99885.25;;;7.42;92.94
52469;BME280;38381;53.688;10.776;2022-12-29T16:21:20;99903.31;;;7.52;93.60
52469;BME280;38381;53.688;10.776;2022-12-29T16:26:23;99902.53;;;7.65;92.63
52469;BME280;38381;53.688;10.776;2022-12-29T16:37:00;99921.34;;;7.42;93.75
52469;BME280;38381;53.688;10.776;2022-12-29T16:42:33;99925.72;;;7.60;93.11
52469;BME280;38381;53.688;10.776;2022-12-29T16:47:35;99913.59;;;7.44;92.91
52469;BME280;38381;53.688;10.776;2022-12-29T16:52:36;99928.22;;;7.43;92.99
52469;BME280;38381;53.688;10.776;2022-12-29T16:57:36;99934.22;;;7.41;92.49
52469;BME280;38381;53.688;10.776;2022-12-29T17:02:37;99929.00;;;7.32;93.24
52469;BME280;38381;53.688;10.776;2022-12-29T17:07:45;99933.34;;;7.37;92.50
52469;BME280;38381;53.688;10.776;2022-12-29T17:12:47;99947.81;;;7.14;93.94
52469;BME280;38381;53.688;10.776;2022-12-29T17:17:49;99953.09;;;7.32;92.97
52469;BME280;38381;53.688;10.776;2022-12-29T17:22:52;99950.44;;;7.21;92.91
52469;BME280;38381;53.688;10.776;2022-12-29T17:28:02;99948.66;;;7.13;92.92
52469;BME280;38381;53.688;10.776;2022-12-29T17:33:06;99955.38;;;6.92;93.75
52469;BME280;38381;53.688;10.776;2022-12-29T17:38:35;99962.16;;;6.84;94.65
52469;BME280;38381;53.688;10.776;2022-12-29T17:43:36;99949.31;;;6.89;94.85
52469;BME280;38381;53.688;10.776;2022-12-29T17:48:37;99952.69;;;6.77;95.01
52469;BME280;38381;53.688;10.776;2022-12-29T17:53:37;99960.56;;;6.95;94.77
52469;BME280;38381;53.688;10.776;2022-12-29T17:58:38;99963.09;;;6.92;94.23
52469;BME280;38381;53.688;10.776;2022-12-29T18:03:39;99976.69;;;6.73;95.35
52469;BME280;38381;53.688;10.776;2022-12-29T18:08:40;99979.25;;;6.71;95.70
52469;BME280;38381;53.688;10.776;2022-12-29T18:13:41;99971.50;;;6.70;95.14
52469;BME280;38381;53.688;10.776;2022-12-29T18:18:41;99980.94;;;6.69;96.16
52469;BME280;38381;53.688;10.776;2022-12-29T18:23:43;99983.69;;;6.91;95.20
52469;BME280;38381;53.688;10.776;2022-12-29T18:28:44;99983.75;;;6.95;94.76
52469;BME280;38381;53.688;10.776;2022-12-29T18:33:50;99977.63;;;6.84;94.96
52469;BME280;38381;53.688;10.776;2022-12-29T18:38:50;99986.22;;;6.84;94.94
52469;BME280;38381;53.688;10.776;2022-12-29T18:43:53;99967.41;;;6.95;94.61
52469;BME280;38381;53.688;10.776;2022-12-29T18:48:53;99975.03;;;6.82;95.07
52469;BME280;38381;53.688;10.776;2022-12-29T18:53:53;99985.38;;;6.84;95.89
52469;BME280;38381;53.688;10.776;2022-12-29T18:58:54;99994.84;;;6.85;94.75
52469;BME280;38381;53.688;10.776;2022-12-29T19:03:56;100007.75;;;6.90;95.61
52469;BME280;38381;53.688;10.776;2022-12-29T19:08:56;99997.47;;;6.91;95.14
52469;BME280;38381;53.688;10.776;2022-12-29T19:13:59;99982.81;;;6.89;95.13
52469;BME280;38381;53.688;10.776;2022-12-29T19:19:02;99968.31;;;6.95;95.26
52469;BME280;38381;53.688;10.776;2022-12-29T19:24:04;99967.34;;;6.89;95.38
52469;BME280;38381;53.688;10.776;2022-12-29T19:29:13;99965.03;;;7.21;93.61
52469;BME280;38381;53.688;10.776;2022-12-29T19:34:19;99964.13;;;7.13;93.65
52469;BME280;38381;53.688;10.776;2022-12-29T19:39:19;99957.25;;;7.10;93.64
52469;BME280;38381;53.688;10.776;2022-12-29T19:44:20;99969.09;;;6.88;95.21
52469;BME280;38381;53.688;10.776;2022-12-29T19:49:20;99972.63;;;7.01;94.64
52469;BME280;38381;53.688;10.776;2022-12-29T19:54:22;99974.25;;;6.88;95.03
52469;BME280;38381;53.688;10.776;2022-12-29T19:59:23;99973.47;;;7.00;95.23
52469;BME280;38381;53.688;10.776;2022-12-29T20:04:23;99965.72;;;6.98;95.00
52469;BME280;38381;53.688;10.776;2022-12-29T20:09:23;99962.19;;;6.85;97.22
52469;BME280;38381;53.688;10.776;2022-12-29T20:14:24;99959.59;;;6.81;97.51
52469;BME280;38381;53.688;10.776;2022-12-29T20:19:24;99963.88;;;6.79;97.61
52469;BME280;38381;53.688;10.776;2022-12-29T20:24:25;99968.88;;;6.65;97.75
52469;BME280;38381;53.688;10.776;2022-12-29T20:29:25;99974.97;;;6.73;97.69
52469;BME280;38381;53.688;10.776;2022-12-29T20:34:25;99980.03;;;6.65;96.57
52469;BME280;38381;53.688;10.776;2022-12-29T20:39:26;99983.56;;;6.74;97.30
52469;BME280;38381;53.688;10.776;2022-12-29T20:44:28;99989.63;;;6.79;96.09
52469;BME280;38381;53.688;10.776;2022-12-29T20:49:29;100010.50;;;7.08;95.63
52469;BME280;38381;53.688;10.776;2022-12-29T20:54:30;100022.47;;;7.00;95.81
52469;BME280;38381;53.688;10.776;2022-12-29T20:59:30;100021.72;;;7.15;94.63
52469;BME280;38381;53.688;10.776;2022-12-29T21:04:30;100026.06;;;7.16;94.85
52469;BME280;38381;53.688;10.776;2022-12-29T21:09:31;100032.81;;;7.01;93.88
52469;BME280;38381;53.688;10.776;2022-12-29T21:14:31;100038.00;;;7.09;93.59
52469;BME280;38381;53.688;10.776;2022-12-29T21:19:32;100051.63;;;6.94;92.22
52469;BME280;38381;53.688;10.776;2022-12-29T21:24:32;100054.25;;;6.97;92.31
52469;BME280;38381;53.688;10.776;2022-12-29T21:29:32;100056.75;;;6.91;91.57
52469;BME280;38381;53.688;10.776;2022-12-29T21:34:33;100059.22;;;6.79;91.95
52469;BME280;38381;53.688;10.776;2022-12-29T21:39:34;100063.53;;;6.81;91.28
52469;BME280;38381;53.688;10.776;2022-12-29T21:44:34;100079.78;;;6.76;92.00
52469;BME280;38381;53.688;10.776;2022-12-29T21:49:53;100091.91;;;6.86;91.41
52469;BME280;38381;53.688;10.776;2022-12-29T21:54:53;100101.19;;;6.69;91.03
52469;BME280;38381;53.688;10.776;2022-12-29T22:00:00;100126.00;;;6.62;92.80
52469;BME280;38381;53.688;10.776;2022-12-29T22:05:20;100117.25;;;6.46;93.53
52469;BME280;38381;53.688;10.776;2022-12-29T22:10:43;100109.47;;;6.44;92.72
52469;BME280;38381;53.688;10.776;2022-12-29T22:16:03;100104.28;;;6.40;93.08
52469;BME280;38381;53.688;10.776;2022-12-29T22:21:05;100111.19;;;6.44;93.16
52469;BME280;38381;53.688;10.776;2022-12-29T22:26:09;100103.44;;;6.42;92.91
52469;BME280;38381;53.688;10.776;2022-12-29T22:36:23;100119.38;;;6.14;93.56
52469;BME280;38381;53.688;10.776;2022-12-29T22:41:23;100110.78;;;6.13;93.97
52469;BME280;38381;53.688;10.776;2022-12-29T22:46:24;100122.63;;;6.02;93.89
52469;BME280;38381;53.688;10.776;2022-12-29T22:51:24;100124.06;;;5.84;95.55
52469;BME280;38381;53.688;10.776;2022-12-29T22:56:25;100117.28;;;5.91;93.78
52469;BME280;38381;53.688;10.776;2022-12-29T23:01:25;100129.06;;;5.75;95.66
52469;BME280;38381;53.688;10.776;2022-12-29T23:06:26;100133.75;;;5.99;93.79
52469;BME280;38381;53.688;10.776;2022-12-29T23:11:27;100131.69;;;5.80;93.65
52469;BME280;38381;53.688;10.776;2022-12-29T23:16:27;100142.97;;;5.87;93.84
52469;BME280;38381;53.688;10.776;2022-12-29T23:21:27;100152.16;;;5.71;93.54
52469;BME280;38381;53.688;10.776;2022-12-29T23:26:37;100160.03;;;5.81;94.12
52469;BME280;38381;53.688;10.776;2022-12-29T23:31:38;100155.53;;;5.70;94.04
52469;BME280;38381;53.688;10.776;2022-12-29T23:36:39;100166.94;;;5.82;93.00
52469;BME280;38381;53.688;10.776;2022-12-29T23:41:40;100182.47;;;5.89;93.42
52469;BME280;38381;53.688;10.776;2022-12-29T23:46:40;100177.22;;;5.84;93.47
52469;BME280;38381;53.688;10.776;2022-12-29T23:51:41;100164.56;;;5.96;93.31
52469;BME280;38381;53.688;10.776;2022-12-29T23:56:41;100181.91;;;6.05;92.32
